createdAt,value
2018-10-17T00:00:14.713Z,16.33
2018-10-17T00:02:45.274Z,16.90
2018-10-17T00:05:16.015Z,15.97
2018-10-17T00:07:46.697Z,15.63
2018-10-17T00:10:17.217Z,17.10
2018-10-17T00:12:48.275Z,15.87
2018-10-17T00:15:18.971Z,16.97
2018-10-17T00:17:49.291Z,16.43
2018-10-17T00:20:19.554Z,16.37
2018-10-17T00:22:49.789Z,17.17
2018-10-17T00:25:20.055Z,16.53
2018-10-17T00:27:50.345Z,15.93
2018-10-17T00:30:20.639Z,16.93
2018-10-17T00:32:50.982Z,15.67
2018-10-17T00:35:21.290Z,18.03
2018-10-17T00:37:51.561Z,17.80
2018-10-17T00:40:24.088Z,17.27
2018-10-17T00:42:55.086Z,16.53
2018-10-17T00:45:25.332Z,16.77
2018-10-17T00:47:55.725Z,16.00
2018-10-17T00:50:25.977Z,17.10
2018-10-17T00:52:56.319Z,15.70
2018-10-17T00:55:26.635Z,16.60
2018-10-17T00:57:56.894Z,15.10
2018-10-17T01:00:27.102Z,15.13
2018-10-17T01:02:57.433Z,17.20
2018-10-17T01:05:27.673Z,17.10
2018-10-17T01:07:57.947Z,17.20
2018-10-17T01:10:28.290Z,16.23
2018-10-17T01:12:58.586Z,15.87
2018-10-17T01:15:28.898Z,15.93
2018-10-17T01:17:59.173Z,16.77
2018-10-17T01:20:29.407Z,15.97
2018-10-17T01:22:59.748Z,15.80
2018-10-17T01:25:29.936Z,15.60
2018-10-17T01:28:00.146Z,16.70
2018-10-17T01:30:30.433Z,17.17
2018-10-17T01:33:00.629Z,16.77
2018-10-17T01:35:30.951Z,17.50
2018-10-17T01:38:01.214Z,17.17
2018-10-17T01:40:31.481Z,17.40
2018-10-17T01:43:01.777Z,16.10
2018-10-17T01:45:31.985Z,17.10
2018-10-17T01:48:02.270Z,16.40
2018-10-17T01:50:32.533Z,17.00
2018-10-17T01:53:02.778Z,17.47
2018-10-17T01:55:33.055Z,15.33
2018-10-17T01:58:03.271Z,15.60
2018-10-17T02:00:33.511Z,17.30
2018-10-17T02:03:03.877Z,15.87
2018-10-17T02:05:34.221Z,14.70
2018-10-17T02:08:04.530Z,15.33
2018-10-17T02:10:34.845Z,15.80
2018-10-17T02:13:05.478Z,15.93
2018-10-17T02:15:35.767Z,16.27
2018-10-17T02:18:06.056Z,16.17
2018-10-17T02:20:36.300Z,17.87
2018-10-17T02:23:06.606Z,18.83
2018-10-17T02:25:36.781Z,18.17
2018-10-17T02:28:07.031Z,17.77
2018-10-17T02:30:37.282Z,17.40
2018-10-17T02:33:07.488Z,18.50
2018-10-17T02:35:37.824Z,17.13
2018-10-17T02:38:08.152Z,17.23
2018-10-17T02:40:38.484Z,16.10
2018-10-17T02:43:08.792Z,14.83
2018-10-17T02:45:39.497Z,16.07
2018-10-17T02:48:09.792Z,16.07
2018-10-17T02:50:40.118Z,16.33
2018-10-17T02:53:10.425Z,15.97
2018-10-17T02:55:40.649Z,16.10
2018-10-17T02:58:10.867Z,17.20
2018-10-17T03:00:41.120Z,16.23
2018-10-17T03:03:11.357Z,17.37
2018-10-17T03:05:41.598Z,19.00
2018-10-17T03:08:11.816Z,19.90
2018-10-17T03:10:42.078Z,20.33
2018-10-17T03:13:12.677Z,17.17
2018-10-17T03:15:46.517Z,17.20
2018-10-17T03:18:16.817Z,18.27
2018-10-17T03:20:47.170Z,19.43
2018-10-17T03:23:17.480Z,18.80
2018-10-17T03:25:47.695Z,19.40
2018-10-17T03:28:18.131Z,19.93
2018-10-17T03:30:48.559Z,20.17
2018-10-17T03:33:19.191Z,19.90
2018-10-17T03:35:49.559Z,19.17
2018-10-17T03:38:20.170Z,18.53
2018-10-17T03:40:50.658Z,18.87
2018-10-17T03:43:20.931Z,18.13
2018-10-17T03:45:51.219Z,17.20
2018-10-17T03:48:21.493Z,18.67
2018-10-17T03:50:51.768Z,20.13
2018-10-17T03:53:21.979Z,18.90
2018-10-17T03:55:52.303Z,17.93
2018-10-17T03:58:22.630Z,17.33
2018-10-17T04:00:52.867Z,18.00
2018-10-17T04:03:23.089Z,18.47
2018-10-17T04:05:53.374Z,18.40
2018-10-17T04:08:23.723Z,19.83
2018-10-17T04:10:54.035Z,18.00
2018-10-17T04:13:24.290Z,19.37
2018-10-17T04:15:54.803Z,18.10
2018-10-17T04:18:25.082Z,17.23
2018-10-17T04:20:55.436Z,16.70
2018-10-17T04:23:25.742Z,18.07
2018-10-17T04:25:56.200Z,18.07
2018-10-17T04:28:26.786Z,19.20
2018-10-17T04:30:57.447Z,17.27
2018-10-17T04:33:27.710Z,18.23
2018-10-17T04:35:58.289Z,18.30
2018-10-17T04:38:28.552Z,19.27
2018-10-17T04:40:59.020Z,19.00
2018-10-17T04:43:29.384Z,19.57
2018-10-17T04:45:59.737Z,18.33
2018-10-17T04:48:30.113Z,16.83
2018-10-17T04:51:00.522Z,17.40
2018-10-17T04:53:30.757Z,19.33
2018-10-17T04:56:01.640Z,18.23
2018-10-17T04:58:31.947Z,17.83
2018-10-17T05:01:02.347Z,18.40
2018-10-17T05:03:32.593Z,17.93
2018-10-17T05:06:02.812Z,18.80
2018-10-17T05:08:33.136Z,17.47
2018-10-17T05:11:03.503Z,18.73
2018-10-17T05:13:33.901Z,18.20
2018-10-17T05:16:04.402Z,18.63
2018-10-17T05:18:34.733Z,18.93
2018-10-17T05:21:05.387Z,18.83
2018-10-17T05:23:35.655Z,18.73
2018-10-17T05:26:06.083Z,18.20
2018-10-17T05:28:36.388Z,17.93
2018-10-17T05:31:06.905Z,19.40
2018-10-17T05:33:37.245Z,20.43
2018-10-17T05:36:07.959Z,19.50
2018-10-17T05:38:38.341Z,18.97
2018-10-17T05:41:08.785Z,18.83
2018-10-17T05:43:39.193Z,16.20
2018-10-17T05:46:09.568Z,18.53
2018-10-17T05:48:39.969Z,18.60
2018-10-17T05:51:10.229Z,18.03
2018-10-17T05:53:40.475Z,19.63
2018-10-17T05:56:10.824Z,21.17
2018-10-17T05:58:41.095Z,19.93
2018-10-17T06:01:11.615Z,18.83
2018-10-17T06:03:41.973Z,19.40
2018-10-17T06:06:12.646Z,18.10
2018-10-17T06:08:42.997Z,18.03
2018-10-17T06:11:13.426Z,18.80
2018-10-17T06:13:43.642Z,17.50
2018-10-17T06:16:14.285Z,17.70
2018-10-17T06:18:44.571Z,15.57
2018-10-17T06:21:14.845Z,16.87
2018-10-17T06:23:45.284Z,16.63
2018-10-17T06:26:15.549Z,15.37
2018-10-17T06:28:45.847Z,16.07
2018-10-17T06:31:16.476Z,16.33
2018-10-17T06:33:46.753Z,16.67
2018-10-17T06:36:17.165Z,16.23
2018-10-17T06:38:47.465Z,17.47
2018-10-17T06:41:17.844Z,16.83
2018-10-17T06:43:48.117Z,16.43
2018-10-17T06:46:18.382Z,16.63
2018-10-17T06:48:48.711Z,16.93
2018-10-17T06:51:19.071Z,16.50
2018-10-17T06:53:49.392Z,17.50
2018-10-17T06:56:19.909Z,16.77
2018-10-17T06:58:50.212Z,15.90
2018-10-17T07:01:20.642Z,15.00
2018-10-17T07:03:50.943Z,15.53
2018-10-17T07:06:21.263Z,16.63
2018-10-17T07:08:51.531Z,15.83
2018-10-17T07:11:21.990Z,15.23
2018-10-17T07:13:52.465Z,14.73
2018-10-17T07:16:22.807Z,15.60
2018-10-17T07:18:53.113Z,15.23
2018-10-17T07:21:23.433Z,15.70
2018-10-17T07:23:53.801Z,15.93
2018-10-17T07:26:24.229Z,15.00
2018-10-17T07:28:55.127Z,14.23
2018-10-17T07:31:25.398Z,15.37
2018-10-17T07:33:55.935Z,14.93
2018-10-17T07:36:26.311Z,14.33
2018-10-17T07:38:56.678Z,14.27
2018-10-17T07:41:30.887Z,13.33
2018-10-17T07:44:02.535Z,14.67
2018-10-17T07:46:32.905Z,13.97
2018-10-17T07:49:03.245Z,13.57
2018-10-17T07:51:33.608Z,13.67
2018-10-17T07:54:04.134Z,13.77
2018-10-17T07:56:35.319Z,14.00
2018-10-17T07:59:05.847Z,14.00
2018-10-17T08:01:36.207Z,13.80
2018-10-17T08:04:06.687Z,13.57
2018-10-17T08:06:37.044Z,15.27
2018-10-17T08:09:09.361Z,13.63
2018-10-17T08:11:39.786Z,15.63
2018-10-17T08:14:10.153Z,15.17
2018-10-17T08:16:40.403Z,15.10
2018-10-17T08:19:11.366Z,14.80
2018-10-17T08:21:41.738Z,14.77
2018-10-17T08:24:13.851Z,15.07
2018-10-17T08:26:44.265Z,14.60
2018-10-17T08:29:15.163Z,15.07
2018-10-17T08:31:45.566Z,14.50
2018-10-17T08:34:15.909Z,15.43
2018-10-17T08:36:46.556Z,15.70
2018-10-17T08:39:16.580Z,16.27
2018-10-17T08:41:46.830Z,14.77
2018-10-17T08:44:17.143Z,15.63
2018-10-17T08:46:47.429Z,15.60
2018-10-17T08:49:17.750Z,15.93
2018-10-17T08:51:48.098Z,15.87
2018-10-17T08:54:18.420Z,16.17
2018-10-17T08:56:49.368Z,16.43
2018-10-17T08:59:19.779Z,16.43
2018-10-17T09:01:50.144Z,16.17
2018-10-17T09:04:20.434Z,18.87
2018-10-17T09:06:50.882Z,16.93
2018-10-17T09:09:22.390Z,16.63
2018-10-17T09:11:52.721Z,16.63
2018-10-17T09:14:23.072Z,17.30
2018-10-17T09:16:55.914Z,17.27
2018-10-17T09:19:26.989Z,18.00
2018-10-17T09:21:58.456Z,17.07
2018-10-17T09:24:28.566Z,19.10
2018-10-17T09:26:58.938Z,33.07
2018-10-17T09:29:29.290Z,18.87
2018-10-17T09:31:59.567Z,22.43
2018-10-17T09:34:29.883Z,17.77
2018-10-17T09:37:00.207Z,18.47
2018-10-17T09:39:30.562Z,18.40
2018-10-17T09:42:00.870Z,18.53
2018-10-17T09:44:31.220Z,17.93
2018-10-17T09:47:01.824Z,17.53
2018-10-17T09:49:32.097Z,16.20
2018-10-17T09:52:02.479Z,16.17
2018-10-17T09:54:32.966Z,16.37
2018-10-17T09:57:03.517Z,16.00
2018-10-17T09:59:33.792Z,16.60
2018-10-17T10:02:04.307Z,16.23
2018-10-17T10:04:34.614Z,16.30
2018-10-17T10:07:05.027Z,16.73
2018-10-17T10:09:35.449Z,15.43
2018-10-17T10:12:06.126Z,15.33
2018-10-17T10:14:36.731Z,16.20
2018-10-17T10:17:07.181Z,15.87
2018-10-17T10:19:37.508Z,16.00
2018-10-17T10:22:08.253Z,15.57
2018-10-17T10:24:38.605Z,15.38
2018-10-17T10:27:08.978Z,16.07
2018-10-17T10:29:39.451Z,14.80
2018-10-17T10:32:10.170Z,14.50
2018-10-17T10:34:40.835Z,15.43
2018-10-17T10:37:11.166Z,17.00
2018-10-17T10:39:41.487Z,17.15
2018-10-17T10:42:11.939Z,15.75
2018-10-17T10:44:42.228Z,14.23
2018-10-17T10:47:12.667Z,15.72
2018-10-17T10:49:43.168Z,17.10
2018-10-17T10:52:13.591Z,14.73
2018-10-17T10:54:44.060Z,15.38
2018-10-17T10:57:14.548Z,15.53
2018-10-17T10:59:45.065Z,14.55
2018-10-17T11:02:15.662Z,15.25
2018-10-17T11:04:46.257Z,15.48
2018-10-17T11:07:16.562Z,14.28
2018-10-17T11:09:47.029Z,14.63
2018-10-17T11:12:17.950Z,13.30
2018-10-17T11:14:48.810Z,15.08
2018-10-17T11:17:19.132Z,14.43
2018-10-17T11:19:49.703Z,14.38
2018-10-17T11:22:20.132Z,13.90
2018-10-17T11:24:50.573Z,14.85
2018-10-17T11:27:21.076Z,14.23
2018-10-17T11:29:51.946Z,14.43
2018-10-17T11:32:22.653Z,13.65
2018-10-17T11:34:53.099Z,15.03
2018-10-17T11:37:23.596Z,13.88
2018-10-17T11:39:53.907Z,16.97
2018-10-17T11:42:24.399Z,14.58
2018-10-17T11:44:54.860Z,15.43
2018-10-17T11:47:27.333Z,18.85
2018-10-17T11:49:59.013Z,17.30
2018-10-17T11:52:29.566Z,14.28
2018-10-17T11:55:00.269Z,13.98
2018-10-17T11:57:30.654Z,13.13
2018-10-17T12:00:04.400Z,13.38
2018-10-17T12:02:34.801Z,13.30
2018-10-17T12:05:06.782Z,13.43
2018-10-17T12:07:37.417Z,12.98
2018-10-17T12:10:08.076Z,12.70
2018-10-17T12:12:38.501Z,13.15
2018-10-17T12:15:11.632Z,14.20
2018-10-17T12:17:42.393Z,13.68
2018-10-17T12:20:15.135Z,13.62
2018-10-17T12:22:46.047Z,14.70
2018-10-17T12:25:16.608Z,12.93
2018-10-17T12:27:47.074Z,13.10
2018-10-17T12:30:17.813Z,12.60
2018-10-17T12:32:48.223Z,12.73
2018-10-17T12:35:18.681Z,14.03
2018-10-17T12:37:49.020Z,12.98
2018-10-17T12:40:19.546Z,11.78
2018-10-17T12:42:50.002Z,12.33
2018-10-17T12:45:20.477Z,12.18
2018-10-17T12:47:50.812Z,13.28
2018-10-17T12:50:21.498Z,13.72
2018-10-17T12:53:09.091Z,12.55
2018-10-17T12:55:39.280Z,12.82
2018-10-17T12:58:09.666Z,12.93
2018-10-17T13:00:40.600Z,15.50
2018-10-17T13:03:11.058Z,12.40
2018-10-17T13:05:41.663Z,12.28
2018-10-17T13:08:12.169Z,14.03
2018-10-17T13:10:42.944Z,11.83
2018-10-17T13:13:13.519Z,11.68
2018-10-17T13:15:44.772Z,11.48
2018-10-17T13:18:17.368Z,11.85
2018-10-17T13:20:47.744Z,11.53
2018-10-17T13:23:18.181Z,11.20
2018-10-17T13:25:48.529Z,11.22
2018-10-17T13:28:18.932Z,10.88
2018-10-17T13:30:49.472Z,10.88
2018-10-17T13:33:20.068Z,11.30
2018-10-17T13:35:50.582Z,10.95
2018-10-17T13:38:21.116Z,10.95
2018-10-17T13:40:51.673Z,10.32
2018-10-17T13:43:22.063Z,10.48
2018-10-17T13:45:52.439Z,9.98
2018-10-17T13:48:23.051Z,10.20
2018-10-17T13:50:53.503Z,11.35
2018-10-17T13:53:23.959Z,11.78
2018-10-17T13:55:54.668Z,10.78
2018-10-17T13:58:26.551Z,10.18
2018-10-17T14:00:57.348Z,9.63
2018-10-17T14:03:28.107Z,9.03
2018-10-17T14:05:58.642Z,9.70
2018-10-17T14:08:28.995Z,9.25
2018-10-17T14:10:59.461Z,10.03
2018-10-17T14:13:30.995Z,8.93
2018-10-17T14:16:01.368Z,9.73
2018-10-17T14:18:31.955Z,9.40
2018-10-17T14:21:02.419Z,9.93
2018-10-17T14:23:32.920Z,10.03
2018-10-17T14:26:03.280Z,9.05
2018-10-17T14:28:33.905Z,11.53
2018-10-17T14:31:04.345Z,10.75
2018-10-17T14:33:34.793Z,9.98
2018-10-17T14:36:05.616Z,9.65
2018-10-17T14:38:35.960Z,9.63
2018-10-17T14:41:06.552Z,9.65
2018-10-17T14:43:37.156Z,9.83
2018-10-17T14:46:07.813Z,9.98
2018-10-17T14:48:38.242Z,9.00
2018-10-17T14:51:08.822Z,9.38
2018-10-17T14:53:39.232Z,9.75
2018-10-17T14:56:10.215Z,9.85
2018-10-17T14:58:40.575Z,10.03
2018-10-17T15:01:11.288Z,9.33
2018-10-17T15:03:41.676Z,10.38
2018-10-17T15:06:12.097Z,10.00
2018-10-17T15:08:42.399Z,9.88
2018-10-17T15:11:12.902Z,10.13
2018-10-17T15:13:43.183Z,13.55
2018-10-17T15:16:13.637Z,9.73
2018-10-17T15:18:43.950Z,9.20
2018-10-17T15:21:14.440Z,9.35
2018-10-17T15:23:44.958Z,9.75
2018-10-17T15:26:15.411Z,10.75
2018-10-17T15:28:46.025Z,10.60
2018-10-17T15:31:16.633Z,11.40
2018-10-17T15:33:47.132Z,16.20
2018-10-17T15:36:17.843Z,14.07
2018-10-17T15:38:48.664Z,17.97
2018-10-17T15:41:19.299Z,11.65
2018-10-17T15:43:49.850Z,10.97
2018-10-17T15:46:20.198Z,11.93
2018-10-17T15:48:50.718Z,12.17
2018-10-17T15:51:21.157Z,10.30
2018-10-17T15:53:51.535Z,11.43
2018-10-17T15:56:21.895Z,16.47
2018-10-17T15:58:52.249Z,17.53
2018-10-17T16:01:25.099Z,12.37
2018-10-17T16:03:55.687Z,12.23
2018-10-17T16:06:26.355Z,10.67
2018-10-17T16:08:56.818Z,11.53
2018-10-17T16:11:27.214Z,11.27
2018-10-17T16:13:57.882Z,11.13
2018-10-17T16:16:28.287Z,12.13
2018-10-17T16:18:58.758Z,12.53
2018-10-17T16:21:29.159Z,12.37
2018-10-17T16:23:59.545Z,13.40
2018-10-17T16:26:29.985Z,11.97
2018-10-17T16:29:00.387Z,11.70
2018-10-17T16:31:30.733Z,11.13
2018-10-17T16:34:01.115Z,10.70
2018-10-17T16:36:31.831Z,11.07
2018-10-17T16:39:02.103Z,12.50
2018-10-17T16:41:32.568Z,11.67
2018-10-17T16:44:02.991Z,12.10
2018-10-17T16:46:34.095Z,11.50
2018-10-17T16:49:04.445Z,11.73
2018-10-17T16:51:35.014Z,11.87
2018-10-17T16:54:05.445Z,11.63
2018-10-17T16:56:35.886Z,11.60
2018-10-17T16:59:06.171Z,11.57
2018-10-17T17:01:36.504Z,12.70
2018-10-17T17:04:06.901Z,12.10
2018-10-17T17:06:37.925Z,14.70
2018-10-17T17:09:10.117Z,14.60
2018-10-17T17:11:40.658Z,12.50
2018-10-17T17:14:10.961Z,12.77
2018-10-17T17:16:41.309Z,11.83
2018-10-17T17:19:11.627Z,12.57
2018-10-17T17:21:42.039Z,11.77
2018-10-17T17:24:12.394Z,11.40
2018-10-17T17:26:44.904Z,12.07
2018-10-17T17:29:15.394Z,11.63
2018-10-17T17:31:45.747Z,11.73
2018-10-17T17:34:16.134Z,11.93
2018-10-17T17:36:46.662Z,12.57
2018-10-17T17:39:17.034Z,12.50
2018-10-17T17:41:47.479Z,12.03
2018-10-17T17:44:17.828Z,13.67
2018-10-17T17:46:48.262Z,12.10
2018-10-17T17:49:18.628Z,12.80
2018-10-17T17:51:49.394Z,11.67
2018-10-17T17:54:20.003Z,11.93
2018-10-17T17:56:50.382Z,12.00
2018-10-17T17:59:21.147Z,12.37
2018-10-17T18:01:52.156Z,15.23
2018-10-17T18:04:22.928Z,15.27
2018-10-17T18:06:53.802Z,15.97
2018-10-17T18:09:25.014Z,16.20
2018-10-17T18:11:55.485Z,14.30
2018-10-17T18:14:25.852Z,15.87
2018-10-17T18:16:56.328Z,15.63
2018-10-17T18:19:26.682Z,14.47
2018-10-17T18:21:57.169Z,14.17
2018-10-17T18:24:27.558Z,14.27
2018-10-17T18:26:58.018Z,15.23
2018-10-17T18:29:28.382Z,14.90
2018-10-17T18:31:58.694Z,13.93
2018-10-17T18:34:29.034Z,14.27
2018-10-17T18:36:59.373Z,14.70
2018-10-17T18:39:29.740Z,13.60
2018-10-17T18:42:00.060Z,15.40
2018-10-17T18:44:30.486Z,14.77
2018-10-17T18:47:00.951Z,15.97
2018-10-17T18:49:31.696Z,18.00
2018-10-17T18:52:02.070Z,17.37
2018-10-17T18:54:32.367Z,19.50
2018-10-17T18:57:02.762Z,18.73
2018-10-17T18:59:33.007Z,18.73
2018-10-17T19:02:03.381Z,19.47
2018-10-17T19:04:33.751Z,18.43
2018-10-17T19:07:04.207Z,16.50
2018-10-17T19:09:34.591Z,20.33
2018-10-17T19:12:05.021Z,21.07
2018-10-17T19:14:35.341Z,20.13
2018-10-17T19:17:05.914Z,20.23
2018-10-17T19:19:36.230Z,21.73
2018-10-17T19:22:07.009Z,23.17
2018-10-17T19:24:37.755Z,24.10
2018-10-17T19:27:08.373Z,26.53
2018-10-17T19:29:39.269Z,23.93
2018-10-17T19:32:09.885Z,19.43
2018-10-17T19:34:40.538Z,20.63
2018-10-17T19:37:11.046Z,20.83
2018-10-17T19:39:41.689Z,20.93
2018-10-17T19:42:12.072Z,22.70
2018-10-17T19:44:42.381Z,20.47
2018-10-17T19:47:12.761Z,22.40
2018-10-17T19:49:43.057Z,20.07
2018-10-17T19:52:13.451Z,20.03
2018-10-17T19:54:43.914Z,18.73
2018-10-17T19:57:14.543Z,20.37
2018-10-17T19:59:45.434Z,21.50
2018-10-17T20:02:16.189Z,18.97
2018-10-17T20:04:46.855Z,20.23
2018-10-17T20:07:17.391Z,19.43
2018-10-17T20:09:48.087Z,18.90
2018-10-17T20:12:18.597Z,19.00
2018-10-17T20:14:48.920Z,19.80
2018-10-17T20:17:19.521Z,18.87
2018-10-17T20:19:50.215Z,18.40
2018-10-17T20:22:20.569Z,18.50
2018-10-17T20:24:50.981Z,19.40
2018-10-17T20:27:21.531Z,18.80
2018-10-17T20:29:52.593Z,18.03
2018-10-17T20:32:22.954Z,20.80
2018-10-17T20:34:53.269Z,21.07
2018-10-17T20:37:24.160Z,21.03
2018-10-17T20:39:54.574Z,19.83
2018-10-17T20:42:25.228Z,20.20
2018-10-17T20:44:56.006Z,20.73
2018-10-17T20:47:26.331Z,20.60
2018-10-17T20:49:56.671Z,21.33
2018-10-17T20:52:27.043Z,20.40
2018-10-17T20:54:57.300Z,20.37
2018-10-17T20:57:27.897Z,18.67
2018-10-17T20:59:58.226Z,18.83
2018-10-17T21:02:28.632Z,20.17
2018-10-17T21:04:59.040Z,19.00
2018-10-17T21:07:29.308Z,20.03
2018-10-17T21:09:59.650Z,18.87
2018-10-17T21:12:29.990Z,19.13
2018-10-17T21:15:00.150Z,18.83
2018-10-17T21:17:34.771Z,18.83
2018-10-17T21:20:05.173Z,18.37
2018-10-17T21:22:35.552Z,18.37
2018-10-17T21:25:05.960Z,18.60
2018-10-17T21:27:36.447Z,20.20
2018-10-17T21:30:08.072Z,21.77
2018-10-17T21:32:38.572Z,23.47
2018-10-17T21:35:08.959Z,21.17
2018-10-17T21:37:39.305Z,24.13
2018-10-17T21:40:09.670Z,20.70
2018-10-17T21:42:40.316Z,22.60
2018-10-17T21:45:10.576Z,21.57
2018-10-17T21:47:41.040Z,22.70
2018-10-17T21:50:12.108Z,20.07
2018-10-17T21:52:42.389Z,20.63
2018-10-17T21:55:12.670Z,20.87
2018-10-17T21:57:43.034Z,20.20
2018-10-17T22:00:13.886Z,21.27
2018-10-17T22:02:44.280Z,20.83
2018-10-17T22:05:14.599Z,22.17
2018-10-17T22:07:44.947Z,21.03
2018-10-17T22:10:15.219Z,19.97
2018-10-17T22:12:47.444Z,22.13
2018-10-17T22:15:17.744Z,20.73
2018-10-17T22:17:48.163Z,20.43
2018-10-17T22:20:18.435Z,18.70
2018-10-17T22:22:48.689Z,49.70
2018-10-17T22:25:19.237Z,33.37
2018-10-17T22:27:49.630Z,21.17
2018-10-17T22:30:19.911Z,19.40
2018-10-17T22:32:50.195Z,19.90
2018-10-17T22:35:20.505Z,20.60
2018-10-17T22:37:50.917Z,22.27
2018-10-17T22:40:21.285Z,21.93
2018-10-17T22:42:51.669Z,20.20
2018-10-17T22:45:21.955Z,21.10
2018-10-17T22:47:52.303Z,20.03
2018-10-17T22:50:22.611Z,20.23
2018-10-17T22:52:52.839Z,21.27
2018-10-17T22:55:23.210Z,20.93
2018-10-17T22:57:53.517Z,20.17
2018-10-17T23:00:23.823Z,19.33
2018-10-17T23:02:54.184Z,21.43
2018-10-17T23:05:24.477Z,20.80
2018-10-17T23:07:54.895Z,22.20
2018-10-17T23:10:25.200Z,19.57
2018-10-17T23:12:55.485Z,21.37
2018-10-17T23:15:25.827Z,21.17
2018-10-17T23:17:56.289Z,19.87
2018-10-17T23:20:26.621Z,20.10
2018-10-17T23:22:57.052Z,19.80
2018-10-17T23:25:27.335Z,18.90
2018-10-17T23:27:57.782Z,18.93
2018-10-17T23:30:28.083Z,19.40
2018-10-17T23:32:58.405Z,19.40
2018-10-17T23:35:28.834Z,20.60
2018-10-17T23:37:59.233Z,17.97
2018-10-17T23:40:29.541Z,19.13
2018-10-17T23:42:59.826Z,18.90
2018-10-17T23:45:30.128Z,20.20
2018-10-17T23:48:00.465Z,22.90
2018-10-17T23:50:30.721Z,20.03
2018-10-17T23:53:01.025Z,19.83
2018-10-17T23:55:31.313Z,20.87
2018-10-17T23:58:01.649Z,22.53
